createdAt,value
2019-05-22T00:00:09.364Z,79.70
2019-05-22T00:02:39.446Z,79.90
2019-05-22T00:05:18.805Z,79.80
2019-05-22T00:07:48.870Z,80.00
2019-05-22T00:10:19.535Z,80.10
2019-05-22T00:12:49.765Z,80.20
2019-05-22T00:15:18.768Z,80.10
2019-05-22T00:17:49.172Z,80.20
2019-05-22T00:20:19.228Z,80.40
2019-05-22T00:22:48.393Z,80.60
2019-05-22T00:25:18.428Z,80.70
2019-05-22T00:27:49.260Z,80.90
2019-05-22T00:30:18.112Z,80.90
2019-05-22T00:32:47.601Z,81.00
2019-05-22T00:35:16.523Z,81.00
2019-05-22T00:37:46.168Z,81.20
2019-05-22T00:40:16.257Z,81.20
2019-05-22T00:43:01.155Z,81.40
2019-05-22T00:45:17.957Z,81.30
2019-05-22T00:47:47.060Z,81.40
2019-05-22T00:50:17.065Z,81.50
2019-05-22T00:52:55.783Z,81.60
2019-05-22T00:55:34.637Z,81.60
2019-05-22T00:58:05.132Z,81.60
2019-05-22T01:00:50.441Z,81.50
2019-05-22T01:03:22.040Z,81.50
2019-05-22T01:05:50.887Z,81.60
2019-05-22T01:08:20.908Z,81.80
2019-05-22T01:10:50.919Z,82.10
2019-05-22T01:13:20.998Z,82.60
2019-05-22T01:15:51.098Z,82.10
2019-05-22T01:18:20.360Z,82.30
2019-05-22T01:20:51.419Z,82.60
2019-05-22T01:23:21.416Z,82.60
2019-05-22T01:25:49.798Z,82.60
2019-05-22T01:28:19.786Z,82.60
2019-05-22T01:31:06.151Z,82.60
2019-05-22T01:33:51.139Z,82.80
2019-05-22T01:36:24.260Z,82.80
2019-05-22T01:38:55.554Z,83.00
2019-05-22T01:41:40.657Z,83.10
2019-05-22T01:44:09.764Z,83.20
2019-05-22T01:46:39.715Z,83.20
2019-05-22T01:49:09.832Z,83.10
2019-05-22T01:51:38.833Z,83.10
2019-05-22T01:54:08.937Z,83.20
2019-05-22T01:56:38.978Z,83.20
2019-05-22T01:59:08.334Z,83.10
2019-05-22T02:01:37.755Z,83.50
2019-05-22T02:04:07.954Z,83.50
2019-05-22T02:06:37.268Z,83.50
2019-05-22T02:09:13.112Z,83.60
2019-05-22T02:11:42.357Z,84.50
2019-05-22T02:14:14.136Z,83.60
2019-05-22T02:16:56.327Z,83.90
2019-05-22T02:19:15.248Z,83.90
2019-05-22T02:21:44.527Z,84.00
2019-05-22T02:24:13.339Z,85.00
2019-05-22T02:26:42.996Z,84.30
2019-05-22T02:29:13.440Z,84.40
2019-05-22T02:31:43.763Z,84.30
2019-05-22T02:34:12.169Z,84.10
2019-05-22T02:36:42.438Z,84.00
2019-05-22T02:39:14.551Z,84.10
2019-05-22T02:41:54.127Z,84.40
2019-05-22T02:44:23.668Z,84.30
2019-05-22T02:46:53.282Z,84.40
2019-05-22T02:49:23.131Z,84.30
2019-05-22T02:51:53.569Z,85.20
2019-05-22T02:54:22.035Z,84.30
2019-05-22T02:56:51.251Z,84.20
2019-05-22T02:59:19.930Z,84.20
2019-05-22T03:01:48.874Z,84.40
2019-05-22T03:04:17.433Z,84.20
2019-05-22T03:06:45.836Z,83.90
2019-05-22T03:09:27.779Z,83.80
2019-05-22T03:12:00.248Z,83.60
2019-05-22T03:14:30.840Z,83.50
2019-05-22T03:17:02.994Z,83.10
2019-05-22T03:19:37.422Z,83.10
2019-05-22T03:22:21.262Z,82.90
2019-05-22T03:24:51.617Z,82.90
2019-05-22T03:27:32.514Z,82.60
2019-05-22T03:30:01.126Z,82.50
2019-05-22T03:32:29.775Z,82.50
2019-05-22T03:34:58.216Z,82.60
2019-05-22T03:37:27.088Z,82.30
2019-05-22T03:39:56.273Z,82.40
2019-05-22T03:42:26.037Z,82.70
2019-05-22T03:44:55.779Z,82.20
2019-05-22T03:47:25.428Z,82.00
2019-05-22T03:49:55.273Z,81.90
2019-05-22T03:52:25.750Z,81.80
2019-05-22T03:54:54.173Z,81.90
2019-05-22T03:57:23.135Z,81.60
2019-05-22T03:59:51.573Z,81.70
2019-05-22T04:02:19.963Z,81.70
2019-05-22T04:04:48.328Z,81.60
2019-05-22T04:07:18.359Z,81.50
2019-05-22T04:09:48.523Z,81.60
2019-05-22T04:12:17.845Z,81.40
2019-05-22T04:14:46.601Z,81.40
2019-05-22T04:17:15.002Z,81.00
2019-05-22T04:19:50.181Z,80.80
2019-05-22T04:22:14.747Z,80.80
2019-05-22T04:24:43.472Z,80.80
2019-05-22T04:27:12.464Z,80.40
2019-05-22T04:29:41.353Z,80.00
2019-05-22T04:32:17.556Z,79.80
2019-05-22T04:34:47.569Z,79.80
2019-05-22T04:37:16.260Z,79.70
2019-05-22T04:39:46.176Z,79.60
2019-05-22T04:42:14.661Z,79.40
2019-05-22T04:44:46.982Z,79.50
2019-05-22T04:47:15.530Z,79.20
2019-05-22T04:49:43.909Z,79.10
2019-05-22T04:52:12.428Z,79.00
2019-05-22T04:54:40.858Z,79.00
2019-05-22T04:57:09.310Z,78.70
2019-05-22T04:59:37.729Z,78.60
2019-05-22T05:02:08.581Z,79.50
2019-05-22T05:04:37.711Z,78.50
2019-05-22T05:07:07.118Z,78.40
2019-05-22T05:09:35.848Z,78.10
2019-05-22T05:12:05.600Z,78.70
2019-05-22T05:14:34.163Z,79.00
2019-05-22T05:17:03.064Z,78.70
2019-05-22T05:19:32.711Z,79.10
2019-05-22T05:22:01.109Z,79.40
2019-05-22T05:24:29.489Z,79.50
2019-05-22T05:26:59.451Z,80.50
2019-05-22T05:29:29.136Z,79.80
2019-05-22T05:31:59.060Z,80.00
2019-05-22T05:34:33.966Z,79.20
2019-05-22T05:37:02.508Z,79.00
2019-05-22T05:39:42.039Z,79.80
2019-05-22T05:42:10.389Z,78.70
2019-05-22T05:44:38.810Z,78.70
2019-05-22T05:47:07.247Z,78.90
2019-05-22T05:49:35.682Z,79.10
2019-05-22T05:52:04.096Z,79.00
2019-05-22T05:54:32.565Z,79.20
2019-05-22T05:57:34.717Z,78.90
2019-05-22T06:00:05.933Z,78.90
2019-05-22T06:02:34.305Z,79.10
2019-05-22T06:05:02.695Z,79.30
2019-05-22T06:07:31.152Z,79.20
2019-05-22T06:10:28.231Z,78.60
2019-05-22T06:12:57.182Z,78.60
2019-05-22T06:15:47.192Z,78.40
2019-05-22T06:18:31.783Z,77.90
2019-05-22T06:21:04.286Z,77.30
2019-05-22T06:23:42.286Z,77.00
2019-05-22T06:26:25.413Z,76.30
2019-05-22T06:28:54.264Z,75.80
2019-05-22T06:31:47.155Z,76.20
2019-05-22T06:34:15.704Z,76.50
2019-05-22T06:36:44.170Z,76.60
2019-05-22T06:39:13.874Z,76.60
2019-05-22T06:41:42.817Z,75.90
2019-05-22T06:44:35.179Z,76.00
2019-05-22T06:47:05.021Z,76.20
2019-05-22T06:49:37.969Z,76.60
2019-05-22T06:52:07.738Z,76.60
2019-05-22T06:54:36.671Z,76.10
2019-05-22T06:57:07.133Z,76.00
2019-05-22T06:59:35.531Z,77.10
2019-05-22T07:02:04.379Z,76.60
2019-05-22T07:04:33.242Z,76.20
2019-05-22T07:07:01.643Z,75.70
2019-05-22T07:09:31.151Z,75.70
2019-05-22T07:12:00.376Z,75.90
2019-05-22T07:14:28.824Z,75.70
2019-05-22T07:16:58.061Z,75.90
2019-05-22T07:19:28.292Z,76.20
2019-05-22T07:21:56.727Z,76.20
2019-05-22T07:24:25.870Z,76.20
2019-05-22T07:26:55.437Z,76.40
2019-05-22T07:29:23.879Z,76.40
2019-05-22T07:31:52.270Z,76.20
2019-05-22T07:34:20.918Z,76.40
2019-05-22T07:36:49.286Z,76.60
2019-05-22T07:39:18.082Z,76.30
2019-05-22T07:41:46.464Z,76.30
2019-05-22T07:44:14.839Z,76.70
2019-05-22T07:46:43.224Z,76.70
2019-05-22T07:49:11.660Z,76.60
2019-05-22T07:51:53.350Z,76.20
2019-05-22T07:54:10.096Z,76.40
2019-05-22T07:56:38.487Z,76.20
2019-05-22T07:59:06.855Z,75.00
2019-05-22T08:01:35.257Z,74.50
2019-05-22T08:04:04.714Z,74.50
2019-05-22T08:06:33.284Z,73.90
2019-05-22T08:09:01.944Z,73.90
2019-05-22T08:11:30.347Z,73.90
2019-05-22T08:13:58.787Z,73.90
2019-05-22T08:16:27.458Z,73.90
2019-05-22T08:18:56.141Z,74.20
2019-05-22T08:21:24.981Z,73.80
2019-05-22T08:23:53.952Z,73.80
2019-05-22T08:26:23.892Z,73.50
2019-05-22T08:28:52.363Z,74.00
2019-05-22T08:31:22.413Z,74.50
2019-05-22T08:33:50.807Z,73.80
2019-05-22T08:36:19.203Z,73.70
2019-05-22T08:38:47.682Z,73.00
2019-05-22T08:41:16.795Z,73.50
2019-05-22T08:44:15.178Z,73.80
2019-05-22T08:46:16.666Z,73.30
2019-05-22T08:48:48.636Z,73.30
2019-05-22T08:51:15.862Z,73.20
2019-05-22T08:53:47.934Z,73.50
2019-05-22T08:56:14.773Z,74.60
2019-05-22T08:58:44.340Z,74.20
2019-05-22T09:01:14.188Z,74.60
2019-05-22T09:03:42.642Z,75.60
2019-05-22T09:06:11.346Z,75.80
2019-05-22T09:08:40.077Z,76.20
2019-05-22T09:11:08.850Z,76.60
2019-05-22T09:13:38.003Z,76.90
2019-05-22T09:16:07.249Z,76.90
2019-05-22T09:18:36.101Z,77.00
2019-05-22T09:21:04.649Z,77.10
2019-05-22T09:23:34.282Z,76.70
2019-05-22T09:26:02.651Z,76.90
2019-05-22T09:28:31.105Z,76.90
2019-05-22T09:30:59.905Z,77.60
2019-05-22T09:33:29.066Z,79.50
2019-05-22T09:35:57.991Z,80.60
2019-05-22T09:38:26.417Z,81.60
2019-05-22T09:40:54.810Z,82.60
2019-05-22T09:43:23.685Z,82.00
2019-05-22T09:45:52.144Z,82.20
2019-05-22T09:48:21.152Z,82.40
2019-05-22T09:50:50.575Z,82.50
2019-05-22T09:53:19.365Z,82.40
2019-05-22T09:55:47.796Z,82.90
2019-05-22T09:58:16.307Z,82.70
2019-05-22T10:00:44.793Z,82.90
2019-05-22T10:03:13.584Z,82.80
2019-05-22T10:05:42.370Z,82.30
2019-05-22T10:08:11.057Z,82.40
2019-05-22T10:10:39.848Z,82.40
2019-05-22T10:13:08.599Z,82.70
2019-05-22T10:15:37.555Z,83.00
2019-05-22T10:18:06.017Z,83.00
2019-05-22T10:20:34.625Z,83.30
2019-05-22T10:23:15.022Z,83.10
2019-05-22T10:25:35.088Z,83.20
2019-05-22T10:28:04.620Z,83.30
2019-05-22T10:30:33.046Z,82.80
2019-05-22T10:33:01.459Z,83.40
2019-05-22T10:35:31.618Z,82.40
2019-05-22T10:38:00.050Z,82.70
2019-05-22T10:40:28.685Z,82.20
2019-05-22T10:42:57.142Z,81.90
2019-05-22T10:45:27.183Z,82.00
2019-05-22T10:47:55.655Z,82.00
2019-05-22T10:50:24.028Z,82.20
2019-05-22T10:52:54.439Z,82.30
2019-05-22T10:55:23.373Z,82.40
2019-05-22T10:57:51.934Z,82.80
2019-05-22T11:00:21.024Z,83.60
2019-05-22T11:02:49.684Z,84.20
2019-05-22T11:05:20.077Z,84.30
2019-05-22T11:07:49.326Z,84.30
2019-05-22T11:10:21.085Z,85.20
2019-05-22T11:12:50.162Z,85.50
2019-05-22T11:15:19.021Z,85.50
2019-05-22T11:17:47.403Z,84.50
2019-05-22T11:20:15.805Z,83.40
2019-05-22T11:22:44.855Z,83.50
2019-05-22T11:25:13.869Z,82.90
2019-05-22T11:27:42.688Z,80.30
2019-05-22T11:30:14.561Z,77.60
2019-05-22T11:32:43.403Z,76.90
2019-05-22T11:35:14.141Z,75.40
2019-05-22T11:37:42.653Z,75.20
2019-05-22T11:40:11.705Z,75.40
2019-05-22T11:42:40.369Z,75.20
2019-05-22T11:45:10.277Z,74.20
2019-05-22T11:47:39.217Z,74.00
2019-05-22T11:50:09.839Z,74.30
2019-05-22T11:52:38.301Z,74.10
2019-05-22T11:55:08.302Z,73.60
2019-05-22T11:57:38.114Z,74.00
2019-05-22T12:00:09.977Z,74.50
2019-05-22T12:02:41.351Z,74.70
2019-05-22T12:05:10.465Z,74.80
2019-05-22T12:07:41.031Z,74.00
2019-05-22T12:10:09.720Z,73.40
2019-05-22T12:12:38.073Z,72.50
2019-05-22T12:15:08.469Z,72.50
2019-05-22T12:17:38.766Z,72.50
2019-05-22T12:20:08.234Z,72.00
2019-05-22T12:22:36.720Z,71.10
2019-05-22T12:25:05.933Z,70.40
2019-05-22T12:27:34.315Z,70.00
2019-05-22T12:30:06.543Z,69.80
2019-05-22T12:32:35.264Z,70.30
2019-05-22T12:35:05.158Z,69.80
2019-05-22T12:37:33.805Z,69.70
2019-05-22T12:40:02.419Z,69.60
2019-05-22T12:42:31.549Z,68.40
2019-05-22T12:44:59.927Z,68.80
2019-05-22T12:47:28.391Z,68.60
2019-05-22T12:49:56.806Z,68.50
2019-05-22T12:52:25.308Z,67.90
2019-05-22T12:54:53.693Z,68.90
2019-05-22T12:57:22.357Z,68.50
2019-05-22T12:59:51.765Z,68.70
2019-05-22T13:02:20.141Z,69.00
2019-05-22T13:04:49.491Z,69.00
2019-05-22T13:07:17.983Z,67.80
2019-05-22T13:09:46.375Z,66.90
2019-05-22T13:12:15.639Z,67.20
2019-05-22T13:14:44.315Z,67.20
2019-05-22T13:17:12.763Z,67.50
2019-05-22T13:19:41.709Z,67.20
2019-05-22T13:22:13.591Z,67.70
2019-05-22T13:24:42.323Z,68.20
2019-05-22T13:27:11.569Z,70.10
2019-05-22T13:29:40.660Z,72.80
2019-05-22T13:32:10.473Z,75.50
2019-05-22T13:34:39.385Z,76.40
2019-05-22T13:37:08.555Z,76.90
2019-05-22T13:39:36.945Z,77.70
2019-05-22T13:42:05.327Z,76.40
2019-05-22T13:44:33.917Z,75.80
2019-05-22T13:47:02.369Z,76.00
2019-05-22T13:49:32.335Z,76.40
2019-05-22T13:52:01.239Z,75.40
2019-05-22T13:54:29.641Z,74.70
2019-05-22T13:56:58.023Z,73.60
2019-05-22T13:59:26.554Z,70.40
2019-05-22T14:01:54.935Z,66.10
2019-05-22T14:04:23.351Z,65.00
2019-05-22T14:06:51.757Z,63.60
2019-05-22T14:09:21.547Z,63.80
2019-05-22T14:11:50.625Z,62.90
2019-05-22T14:14:19.041Z,65.20
2019-05-22T14:16:49.032Z,65.70
2019-05-22T14:19:17.514Z,65.80
2019-05-22T14:21:51.305Z,66.60
2019-05-22T14:24:15.993Z,67.30
2019-05-22T14:26:44.462Z,67.90
2019-05-22T14:29:13.043Z,68.50
2019-05-22T14:31:41.411Z,68.40
2019-05-22T14:34:11.700Z,68.70
2019-05-22T14:36:40.149Z,69.20
2019-05-22T14:39:10.250Z,69.60
2019-05-22T14:41:38.616Z,69.40
2019-05-22T14:44:07.067Z,69.90
2019-05-22T14:46:35.588Z,71.30
2019-05-22T14:49:04.093Z,72.30
2019-05-22T14:51:33.180Z,74.40
2019-05-22T14:54:01.558Z,76.20
2019-05-22T14:56:30.357Z,77.50
2019-05-22T14:58:58.761Z,78.40
2019-05-22T15:01:27.163Z,78.20
2019-05-22T15:03:55.549Z,78.50
2019-05-22T15:06:24.311Z,79.40
2019-05-22T15:08:52.973Z,79.40
2019-05-22T15:11:21.491Z,80.20
2019-05-22T15:13:49.864Z,80.00
2019-05-22T15:16:18.253Z,79.80
2019-05-22T15:18:46.688Z,80.30
2019-05-22T15:21:16.170Z,80.20
2019-05-22T15:23:44.950Z,79.60
2019-05-22T15:26:13.339Z,79.60
2019-05-22T15:28:41.754Z,79.00
2019-05-22T15:31:10.162Z,78.50
2019-05-22T15:33:38.596Z,78.10
2019-05-22T15:36:08.159Z,79.00
2019-05-22T15:38:38.272Z,78.40
2019-05-22T15:41:07.753Z,79.00
2019-05-22T15:43:36.151Z,78.50
2019-05-22T15:46:06.252Z,77.70
2019-05-22T15:48:35.545Z,75.20
2019-05-22T15:51:07.078Z,75.00
2019-05-22T15:53:35.789Z,75.40
2019-05-22T15:56:04.363Z,75.00
2019-05-22T15:58:33.933Z,74.40
2019-05-22T16:01:04.692Z,75.10
2019-05-22T16:03:33.152Z,74.90
2019-05-22T16:06:01.558Z,74.60
2019-05-22T16:08:30.227Z,74.30
2019-05-22T16:11:00.285Z,73.80
2019-05-22T16:13:32.220Z,76.10
2019-05-22T16:16:01.069Z,77.00
2019-05-22T16:18:33.034Z,77.60
2019-05-22T16:21:02.584Z,78.10
2019-05-22T16:23:31.646Z,78.40
2019-05-22T16:26:00.168Z,79.60
2019-05-22T16:28:33.278Z,79.80
2019-05-22T16:30:59.640Z,80.30
2019-05-22T16:33:28.633Z,80.90
2019-05-22T16:35:57.025Z,81.20
2019-05-22T16:38:25.502Z,81.40
2019-05-22T16:40:54.380Z,81.80
2019-05-22T16:43:22.773Z,82.10
2019-05-22T16:45:51.698Z,82.40
2019-05-22T16:48:28.982Z,82.90
2019-05-22T16:50:51.668Z,83.20
2019-05-22T16:53:20.929Z,83.10
2019-05-22T16:55:49.708Z,83.40
2019-05-22T16:58:18.492Z,83.50
2019-05-22T17:00:47.310Z,83.90
2019-05-22T17:03:16.258Z,84.50
2019-05-22T17:05:44.651Z,84.60
2019-05-22T17:08:13.607Z,84.70
2019-05-22T17:10:42.066Z,84.70
2019-05-22T17:13:12.355Z,84.70
2019-05-22T17:15:40.781Z,84.70
2019-05-22T17:18:10.812Z,84.70
2019-05-22T17:20:40.953Z,84.60
2019-05-22T17:23:09.361Z,84.70
2019-05-22T17:25:37.749Z,84.90
2019-05-22T17:28:06.647Z,84.80
2019-05-22T17:30:35.047Z,84.80
2019-05-22T17:33:03.485Z,84.70
2019-05-22T17:35:32.958Z,84.60
2019-05-22T17:38:01.342Z,85.40
2019-05-22T17:40:30.669Z,84.40
2019-05-22T17:42:59.417Z,83.90
2019-05-22T17:45:28.412Z,83.90
2019-05-22T17:47:57.673Z,83.50
2019-05-22T17:50:27.571Z,83.40
2019-05-22T17:52:56.870Z,83.20
2019-05-22T17:55:25.820Z,82.80
2019-05-22T17:57:54.736Z,82.00
2019-05-22T18:00:39.894Z,81.70
2019-05-22T18:03:09.840Z,81.60
2019-05-22T18:05:38.819Z,81.40
2019-05-22T18:08:07.220Z,81.40
2019-05-22T18:10:40.176Z,80.40
2019-05-22T18:13:06.749Z,80.30
2019-05-22T18:15:35.624Z,80.60
2019-05-22T18:18:05.453Z,81.50
2019-05-22T18:20:43.280Z,82.00
2019-05-22T18:23:05.477Z,83.10
2019-05-22T18:25:33.992Z,83.10
2019-05-22T18:28:02.973Z,83.40
2019-05-22T18:30:32.662Z,84.00
2019-05-22T18:33:01.062Z,84.80
2019-05-22T18:35:29.545Z,85.80
2019-05-22T18:37:57.904Z,87.10
2019-05-22T18:40:26.379Z,87.30
2019-05-22T18:42:54.862Z,87.60
2019-05-22T18:45:24.498Z,87.70
2019-05-22T18:47:53.847Z,87.90
2019-05-22T18:50:22.255Z,88.10
2019-05-22T18:52:50.816Z,88.40
2019-05-22T18:55:19.606Z,88.60
2019-05-22T18:57:48.489Z,89.80
2019-05-22T19:00:19.583Z,88.80
2019-05-22T19:02:48.231Z,88.70
2019-05-22T19:05:19.077Z,88.60
2019-05-22T19:07:47.462Z,88.60
2019-05-22T19:10:17.626Z,88.90
2019-05-22T19:12:46.022Z,89.00
2019-05-22T19:15:14.415Z,89.10
2019-05-22T19:17:43.675Z,89.50
2019-05-22T19:20:12.082Z,89.80
2019-05-22T19:22:56.740Z,89.80
2019-05-22T19:25:11.087Z,89.80
2019-05-22T19:27:39.477Z,90.30
2019-05-22T19:30:09.519Z,90.00
2019-05-22T19:32:37.928Z,89.60
2019-05-22T19:35:07.219Z,88.90
2019-05-22T19:37:36.033Z,89.00
2019-05-22T19:40:06.345Z,87.80
2019-05-22T19:42:34.967Z,87.70
2019-05-22T19:45:05.579Z,87.40
2019-05-22T19:47:34.301Z,87.20
2019-05-22T19:50:03.861Z,87.20
2019-05-22T19:52:41.880Z,87.10
2019-05-22T19:55:07.266Z,86.90
2019-05-22T19:57:36.191Z,86.80
2019-05-22T20:00:05.610Z,86.80
2019-05-22T20:02:34.067Z,86.30
2019-05-22T20:05:03.141Z,86.30
2019-05-22T20:07:32.267Z,86.40
2019-05-22T20:10:01.326Z,86.40
2019-05-22T20:12:30.139Z,86.70
2019-05-22T20:14:59.029Z,86.70
2019-05-22T20:17:27.832Z,86.80
2019-05-22T20:19:56.272Z,86.90
2019-05-22T20:22:24.684Z,87.10
2019-05-22T20:24:53.238Z,87.00
2019-05-22T20:27:21.759Z,87.00
2019-05-22T20:29:50.484Z,87.00
2019-05-22T20:32:19.635Z,87.10
2019-05-22T20:34:48.472Z,87.20
2019-05-22T20:37:16.839Z,87.40
2019-05-22T20:39:45.269Z,87.50
2019-05-22T20:42:14.015Z,87.80
2019-05-22T20:44:42.973Z,88.00
2019-05-22T20:47:11.402Z,88.00
2019-05-22T20:49:40.251Z,88.00
2019-05-22T20:52:10.922Z,87.80
2019-05-22T20:54:39.497Z,88.00
2019-05-22T20:57:08.901Z,88.00
2019-05-22T20:59:38.540Z,88.00
2019-05-22T21:02:08.562Z,87.90
2019-05-22T21:04:37.603Z,88.10
2019-05-22T21:07:07.632Z,88.20
2019-05-22T21:09:36.744Z,88.20
2019-05-22T21:12:06.865Z,88.00
2019-05-22T21:14:35.513Z,88.00
2019-05-22T21:17:05.123Z,88.00
2019-05-22T21:19:35.258Z,88.00
2019-05-22T21:22:05.390Z,88.00
2019-05-22T21:24:36.536Z,87.80
2019-05-22T21:27:06.182Z,87.80
2019-05-22T21:29:34.677Z,87.60
2019-05-22T21:32:04.088Z,87.80
2019-05-22T21:34:32.444Z,87.80
2019-05-22T21:37:01.137Z,87.70
2019-05-22T21:39:29.595Z,87.90
2019-05-22T21:41:58.051Z,88.00
2019-05-22T21:44:26.519Z,87.90
2019-05-22T21:46:54.949Z,87.90
2019-05-22T21:49:24.294Z,88.00
2019-05-22T21:51:52.675Z,87.80
2019-05-22T21:54:21.150Z,87.60
2019-05-22T21:56:49.825Z,87.60
2019-05-22T21:59:18.279Z,87.70
2019-05-22T22:01:48.309Z,87.40
2019-05-22T22:04:18.341Z,87.40
2019-05-22T22:06:47.287Z,87.40
2019-05-22T22:09:17.406Z,87.30
2019-05-22T22:11:45.859Z,87.40
2019-05-22T22:14:14.995Z,87.30
2019-05-22T22:16:44.137Z,87.30
2019-05-22T22:19:12.687Z,87.10
2019-05-22T22:21:41.689Z,87.00
2019-05-22T22:24:10.714Z,87.00
2019-05-22T22:26:39.167Z,86.90
2019-05-22T22:29:08.051Z,86.90
2019-05-22T22:31:36.795Z,87.00
2019-05-22T22:34:09.731Z,86.90
2019-05-22T22:36:38.103Z,86.90
2019-05-22T22:39:08.128Z,86.90
2019-05-22T22:41:36.829Z,87.80
2019-05-22T22:44:06.853Z,86.90
2019-05-22T22:46:39.876Z,86.90
2019-05-22T22:49:11.471Z,86.90
2019-05-22T22:51:40.611Z,87.00
2019-05-22T22:54:09.979Z,87.80
2019-05-22T22:56:39.901Z,86.90
2019-05-22T22:59:09.583Z,86.90
2019-05-22T23:01:39.058Z,86.90
2019-05-22T23:04:07.934Z,87.00
2019-05-22T23:06:36.928Z,87.00
2019-05-22T23:09:07.135Z,86.80
2019-05-22T23:11:37.749Z,86.80
2019-05-22T23:14:08.281Z,86.90
2019-05-22T23:16:37.393Z,86.90
2019-05-22T23:19:18.842Z,86.80
2019-05-22T23:21:48.119Z,86.90
2019-05-22T23:24:16.635Z,87.00
2019-05-22T23:26:45.073Z,87.00
2019-05-22T23:29:14.343Z,87.20
2019-05-22T23:31:43.093Z,87.30
2019-05-22T23:34:11.583Z,87.00
2019-05-22T23:36:40.729Z,87.30
2019-05-22T23:39:12.777Z,87.60
2019-05-22T23:41:41.280Z,87.50
2019-05-22T23:44:11.184Z,87.50
2019-05-22T23:46:41.390Z,87.40
2019-05-22T23:49:10.135Z,88.20
2019-05-22T23:51:38.779Z,87.40
2019-05-22T23:54:08.859Z,87.40
2019-05-22T23:56:38.931Z,87.30
2019-05-22T23:59:07.311Z,87.20
